createdAt,value
2023-09-29T00:01:16.713Z,96855.94
2023-09-29T00:03:48.193Z,96857.53
2023-09-29T00:06:16.488Z,96866.06
2023-09-29T00:08:47.086Z,96863.69
2023-09-29T00:11:15.417Z,96867.16
2023-09-29T00:13:43.613Z,96869.88
2023-09-29T00:16:11.761Z,96867.16
2023-09-29T00:18:39.911Z,96865.28
2023-09-29T00:21:09.274Z,96861.22
2023-09-29T00:23:37.629Z,96862.22
2023-09-29T00:26:06.351Z,96857.94
2023-09-29T00:28:34.537Z,96860.66
2023-09-29T00:34:21.174Z,96857.75
2023-09-29T00:36:52.318Z,96854.59
2023-09-29T00:39:20.378Z,96862.81
2023-09-29T00:41:50.454Z,96855.66
2023-09-29T00:44:18.816Z,96858.31
2023-09-29T00:46:47.281Z,96853.97
2023-09-29T00:49:15.808Z,96852.38
2023-09-29T00:51:44.063Z,96855.81
2023-09-29T00:54:15.314Z,96852.88
2023-09-29T00:56:44.432Z,96850.44
2023-09-29T00:59:12.660Z,96851.06
2023-09-29T01:01:42.664Z,96844.88
2023-09-29T01:04:11.695Z,96849.38
2023-09-29T01:06:42.601Z,96847.28
2023-09-29T01:09:12.998Z,96842.78
2023-09-29T01:11:44.519Z,96850.81
2023-09-29T01:14:14.013Z,96848.41
2023-09-29T01:16:43.402Z,96845.72
2023-09-29T01:19:13.875Z,96847.03
2023-09-29T01:21:45.387Z,96844.38
2023-09-29T01:24:15.863Z,96839.91
2023-09-29T01:26:46.231Z,96840.69
2023-09-29T01:29:14.452Z,96843.63
2023-09-29T01:31:42.981Z,96840.66
2023-09-29T01:34:11.133Z,96841.50
2023-09-29T01:36:40.376Z,96842.31
2023-09-29T01:39:09.725Z,96844.75
2023-09-29T01:41:39.179Z,96835.72
2023-09-29T01:44:07.769Z,96832.53
2023-09-29T01:46:37.975Z,96840.75
2023-09-29T01:49:08.181Z,96836.00
2023-09-29T01:51:36.609Z,96841.06
2023-09-29T01:54:05.082Z,96837.88
2023-09-29T01:56:33.302Z,96840.19
2023-09-29T01:59:04.220Z,96835.34
2023-09-29T02:01:35.322Z,96832.16
2023-09-29T02:04:03.430Z,96824.19
2023-09-29T02:06:32.404Z,96826.63
2023-09-29T02:09:00.551Z,96821.78
2023-09-29T02:11:29.238Z,96833.25
2023-09-29T02:13:57.908Z,96824.69
2023-09-29T02:16:27.321Z,96831.91
2023-09-29T02:18:56.687Z,96825.50
2023-09-29T02:21:29.144Z,96825.47
2023-09-29T02:23:57.618Z,96825.50
2023-09-29T02:26:26.526Z,96825.28
2023-09-29T02:28:55.941Z,96825.47
2023-09-29T02:31:28.059Z,96826.56
2023-09-29T02:33:58.226Z,96819.94
2023-09-29T02:36:26.380Z,96827.44
2023-09-29T02:38:54.921Z,96830.59
2023-09-29T02:41:23.552Z,96832.44
2023-09-29T02:43:51.630Z,96831.91
2023-09-29T02:46:21.975Z,96835.88
2023-09-29T02:48:50.708Z,96830.22
2023-09-29T02:51:21.307Z,96827.78
2023-09-29T02:53:51.032Z,96828.03
2023-09-29T02:56:19.684Z,96823.25
2023-09-29T02:58:48.561Z,96828.06
2023-09-29T03:01:17.531Z,96825.97
2023-09-29T03:03:46.531Z,96819.28
2023-09-29T03:06:20.138Z,96815.03
2023-09-29T03:08:52.463Z,96816.28
2023-09-29T03:11:20.619Z,96817.13
2023-09-29T03:13:48.691Z,96824.81
2023-09-29T03:16:18.128Z,96822.16
2023-09-29T03:18:47.575Z,96821.28
2023-09-29T03:21:16.611Z,96818.63
2023-09-29T03:23:46.417Z,96827.69
2023-09-29T03:26:19.139Z,96817.19
2023-09-29T03:28:47.400Z,96826.88
2023-09-29T03:31:15.634Z,96832.69
2023-09-29T03:33:44.013Z,96837.53
2023-09-29T03:36:13.734Z,96837.56
2023-09-29T03:38:42.119Z,96825.06
2023-09-29T03:41:11.832Z,96830.44
2023-09-29T03:43:41.556Z,96833.91
2023-09-29T03:46:20.601Z,96838.44
2023-09-29T03:48:49.438Z,96838.69
2023-09-29T03:51:24.334Z,96843.25
2023-09-29T03:53:52.575Z,96841.66
2023-09-29T03:56:24.106Z,96838.44
2023-09-29T03:58:55.064Z,96831.75
2023-09-29T04:01:24.106Z,96828.72
2023-09-29T04:03:52.307Z,96819.72
2023-09-29T04:06:20.483Z,96821.34
2023-09-29T04:08:48.917Z,96829.63
2023-09-29T04:11:17.166Z,96837.69
2023-09-29T04:13:45.188Z,96841.47
2023-09-29T04:16:15.285Z,96839.03
2023-09-29T04:18:43.510Z,96845.97
2023-09-29T04:21:18.057Z,96853.44
2023-09-29T04:23:48.169Z,96854.41
2023-09-29T04:26:17.494Z,96858.38
2023-09-29T04:28:45.717Z,96860.25
2023-09-29T04:31:15.252Z,96855.16
2023-09-29T04:33:43.478Z,96862.03
2023-09-29T04:36:12.432Z,96855.97
2023-09-29T04:38:42.366Z,96856.22
2023-09-29T04:41:10.725Z,96861.50
2023-09-29T04:43:38.834Z,96855.94
2023-09-29T04:46:07.071Z,96852.50
2023-09-29T04:48:36.556Z,96846.66
2023-09-29T04:51:04.980Z,96854.91
2023-09-29T04:53:33.150Z,96855.16
2023-09-29T04:56:02.152Z,96855.00
2023-09-29T04:58:30.740Z,96852.03
2023-09-29T05:00:58.783Z,96852.03
2023-09-29T05:03:27.389Z,96848.34
2023-09-29T05:05:57.481Z,96852.63
2023-09-29T05:08:25.633Z,96851.56
2023-09-29T05:10:54.122Z,96852.66
2023-09-29T05:13:22.194Z,96855.91
2023-09-29T05:15:50.282Z,96853.97
2023-09-29T05:18:18.590Z,96869.47
2023-09-29T05:20:46.758Z,96858.25
2023-09-29T05:23:16.313Z,96866.38
2023-09-29T05:25:47.887Z,96863.06
2023-09-29T05:28:16.557Z,96866.69
2023-09-29T05:30:55.429Z,96872.75
2023-09-29T05:33:23.763Z,96868.09
2023-09-29T05:35:52.415Z,96869.72
2023-09-29T05:38:22.232Z,96863.75
2023-09-29T05:40:52.441Z,96877.63
2023-09-29T05:43:21.030Z,96871.19
2023-09-29T05:45:49.983Z,96873.63
2023-09-29T05:48:18.309Z,96875.22
2023-09-29T05:50:48.279Z,96870.72
2023-09-29T05:53:17.862Z,96884.88
2023-09-29T05:55:47.491Z,96878.56
2023-09-29T05:58:15.655Z,96876.63
2023-09-29T06:00:43.793Z,96883.63
2023-09-29T06:03:11.878Z,96884.78
2023-09-29T06:05:40.880Z,96873.44
2023-09-29T06:08:09.093Z,96871.94
2023-09-29T06:10:38.837Z,96874.41
2023-09-29T06:13:10.610Z,96881.16
2023-09-29T06:15:40.062Z,96882.78
2023-09-29T06:18:08.952Z,96878.88
2023-09-29T06:20:37.077Z,96882.94
2023-09-29T06:23:05.715Z,96888.88
2023-09-29T06:25:34.214Z,96888.34
2023-09-29T06:28:02.405Z,96893.22
2023-09-29T06:30:32.027Z,96890.88
2023-09-29T06:33:00.233Z,96892.75
2023-09-29T06:35:30.998Z,96896.78
2023-09-29T06:37:59.183Z,96905.88
2023-09-29T06:40:28.410Z,96898.97
2023-09-29T06:42:57.866Z,96904.38
2023-09-29T06:45:29.370Z,96907.09
2023-09-29T06:48:10.413Z,96910.28
2023-09-29T06:50:38.520Z,96911.66
2023-09-29T06:53:06.786Z,96912.78
2023-09-29T06:55:34.862Z,96908.53
2023-09-29T06:58:05.928Z,96899.19
2023-09-29T07:00:38.627Z,96902.97
2023-09-29T07:03:13.623Z,96901.16
2023-09-29T07:05:43.308Z,96908.38
2023-09-29T07:08:11.454Z,96907.59
2023-09-29T07:10:39.555Z,96905.22
2023-09-29T07:13:07.734Z,96904.97
2023-09-29T07:15:35.940Z,96903.38
2023-09-29T07:18:04.177Z,96899.38
2023-09-29T07:20:32.975Z,96906.63
2023-09-29T07:23:04.184Z,96905.81
2023-09-29T07:25:35.267Z,96907.75
2023-09-29T07:28:03.358Z,96908.00
2023-09-29T07:30:31.437Z,96914.44
2023-09-29T07:33:00.022Z,96904.59
2023-09-29T07:35:28.487Z,96907.00
2023-09-29T07:37:56.703Z,96911.53
2023-09-29T07:40:26.170Z,96916.88
2023-09-29T07:42:54.458Z,96920.13
2023-09-29T07:45:23.316Z,96923.56
2023-09-29T07:47:51.669Z,96919.88
2023-09-29T07:50:20.471Z,96916.13
2023-09-29T07:52:48.739Z,96919.63
2023-09-29T07:55:17.707Z,96919.94
2023-09-29T07:57:47.228Z,96928.25
2023-09-29T08:00:16.520Z,96927.72
2023-09-29T08:02:47.487Z,96928.56
2023-09-29T08:05:16.974Z,96919.50
2023-09-29T08:07:45.126Z,96910.44
2023-09-29T08:10:13.363Z,96909.94
2023-09-29T08:12:41.589Z,96912.38
2023-09-29T08:15:14.674Z,96916.72
2023-09-29T08:17:45.095Z,96921.03
2023-09-29T08:20:15.944Z,96924.28
2023-09-29T08:22:44.552Z,96917.84
2023-09-29T08:25:13.062Z,96922.16
2023-09-29T08:27:41.602Z,96918.41
2023-09-29T08:30:12.921Z,96923.25
2023-09-29T08:32:44.728Z,96913.63
2023-09-29T08:35:14.603Z,96910.94
2023-09-29T08:37:43.845Z,96909.56
2023-09-29T08:40:14.316Z,96905.81
2023-09-29T08:42:50.549Z,96907.41
2023-09-29T08:45:24.426Z,96906.28
2023-09-29T08:47:54.476Z,96911.78
2023-09-29T08:50:25.444Z,96919.25
2023-09-29T08:52:55.289Z,96918.13
2023-09-29T08:55:25.682Z,96917.56
2023-09-29T08:57:56.060Z,96915.13
2023-09-29T09:00:27.899Z,96918.31
2023-09-29T09:03:01.666Z,96915.09
2023-09-29T09:05:30.522Z,96899.16
2023-09-29T09:08:02.398Z,96910.91
2023-09-29T09:10:35.645Z,96917.31
2023-09-29T09:13:04.569Z,96904.66
2023-09-29T09:15:34.266Z,96903.84
2023-09-29T09:18:03.002Z,96905.38
2023-09-29T09:20:32.550Z,96905.66
2023-09-29T09:23:03.665Z,96908.56
2023-09-29T09:25:37.723Z,96901.09
2023-09-29T09:28:31.452Z,96908.13
2023-09-29T09:31:03.964Z,96911.66
2023-09-29T09:33:32.604Z,96901.19
2023-09-29T09:36:06.606Z,96907.63
2023-09-29T09:38:35.560Z,96901.75
2023-09-29T09:41:03.999Z,96903.91
2023-09-29T09:43:36.497Z,96911.94
2023-09-29T09:46:12.437Z,96908.22
2023-09-29T09:48:50.991Z,96910.31
2023-09-29T09:51:36.945Z,96909.25
2023-09-29T09:54:09.296Z,96909.75
2023-09-29T09:56:49.023Z,96911.50
2023-09-29T09:59:18.089Z,96910.75
2023-09-29T10:01:47.995Z,96904.34
2023-09-29T10:04:16.638Z,96902.75
2023-09-29T10:06:46.199Z,96910.34
2023-09-29T10:09:14.884Z,96907.75
2023-09-29T10:11:45.379Z,96904.13
2023-09-29T10:14:13.627Z,96895.84
2023-09-29T10:16:42.115Z,96903.25
2023-09-29T10:19:13.609Z,96908.63
2023-09-29T10:21:46.901Z,96897.75
2023-09-29T10:24:27.519Z,96893.38
2023-09-29T10:26:55.890Z,96893.81
2023-09-29T10:29:33.284Z,96894.63
2023-09-29T10:32:12.102Z,96893.84
2023-09-29T10:34:41.902Z,96892.56
2023-09-29T10:37:11.216Z,96887.16
2023-09-29T10:39:41.199Z,96893.28
2023-09-29T10:42:14.128Z,96886.38
2023-09-29T10:44:46.608Z,96882.63
2023-09-29T10:47:17.977Z,96883.91
2023-09-29T10:49:48.903Z,96887.63
2023-09-29T10:52:23.720Z,96886.72
2023-09-29T10:54:59.804Z,96880.03
2023-09-29T10:57:29.790Z,96876.41
2023-09-29T11:00:01.833Z,96886.19
2023-09-29T11:02:32.742Z,96878.38
2023-09-29T11:05:06.810Z,96880.78
2023-09-29T11:07:50.847Z,96874.28
2023-09-29T11:10:20.454Z,96874.97
2023-09-29T11:12:49.554Z,96871.41
2023-09-29T11:15:19.836Z,96876.59
2023-09-29T11:17:50.339Z,96874.34
2023-09-29T11:20:28.185Z,96858.00
2023-09-29T11:23:08.248Z,96862.50
2023-09-29T11:25:49.677Z,96863.22
2023-09-29T11:28:18.293Z,96855.53
2023-09-29T11:30:46.486Z,96854.72
2023-09-29T11:36:22.458Z,96848.84
2023-09-29T11:38:51.865Z,96841.72
2023-09-29T11:41:22.350Z,96843.69
2023-09-29T11:43:51.320Z,96846.81
2023-09-29T11:46:19.780Z,96849.06
2023-09-29T11:48:48.148Z,96840.03
2023-09-29T11:51:16.294Z,96835.75
2023-09-29T11:53:46.029Z,96829.97
2023-09-29T11:56:14.160Z,96846.38
2023-09-29T11:58:42.363Z,96835.44
2023-09-29T12:01:10.734Z,96842.97
2023-09-29T12:03:39.066Z,96842.84
2023-09-29T12:06:08.204Z,96831.69
2023-09-29T12:08:37.566Z,96837.00
2023-09-29T12:11:08.423Z,96834.81
2023-09-29T12:13:39.281Z,96832.41
2023-09-29T12:16:09.755Z,96833.50
2023-09-29T12:18:37.920Z,96828.56
2023-09-29T12:21:09.984Z,96826.47
2023-09-29T12:23:38.136Z,96820.13
2023-09-29T12:26:09.411Z,96814.72
2023-09-29T12:28:37.667Z,96829.78
2023-09-29T12:31:15.213Z,96825.22
2023-09-29T12:33:43.365Z,96830.25
2023-09-29T12:36:11.797Z,96819.88
2023-09-29T12:38:39.936Z,96831.28
2023-09-29T12:41:10.018Z,96829.09
2023-09-29T12:43:38.650Z,96819.44
2023-09-29T12:46:06.753Z,96828.28
2023-09-29T12:48:35.711Z,96826.81
2023-09-29T12:51:04.107Z,96824.41
2023-09-29T12:53:33.064Z,96826.63
2023-09-29T12:56:02.437Z,96817.72
2023-09-29T12:58:31.877Z,96814.38
2023-09-29T13:01:00.020Z,96823.00
2023-09-29T13:03:28.310Z,96824.53
2023-09-29T13:06:01.444Z,96829.56
2023-09-29T13:08:31.133Z,96834.88
2023-09-29T13:10:59.321Z,96839.47
2023-09-29T13:13:27.961Z,96834.50
2023-09-29T13:15:57.511Z,96831.44
2023-09-29T13:18:27.689Z,96826.25
2023-09-29T13:20:56.370Z,96830.16
2023-09-29T13:23:25.956Z,96830.06
2023-09-29T13:25:54.252Z,96833.56
2023-09-29T13:28:22.437Z,96830.88
2023-09-29T13:30:54.650Z,96836.44
2023-09-29T13:33:28.293Z,96855.22
2023-09-29T13:35:57.239Z,96842.25
2023-09-29T13:38:25.522Z,96854.22
2023-09-29T13:40:54.751Z,96850.63
2023-09-29T13:43:23.391Z,96852.22
2023-09-29T13:45:51.955Z,96845.03
2023-09-29T13:48:23.293Z,96845.41
2023-09-29T13:50:53.600Z,96853.31
2023-09-29T13:53:22.938Z,96850.91
2023-09-29T13:55:52.645Z,96857.28
2023-09-29T13:58:21.225Z,96850.03
2023-09-29T14:00:51.228Z,96855.19
2023-09-29T14:03:19.830Z,96847.00
2023-09-29T14:05:48.860Z,96853.09
2023-09-29T14:08:20.341Z,96851.88
2023-09-29T14:10:48.914Z,96851.53
2023-09-29T14:13:18.196Z,96855.88
2023-09-29T14:15:46.413Z,96857.03
2023-09-29T14:18:14.992Z,96854.69
2023-09-29T14:20:43.730Z,96859.28
2023-09-29T14:23:12.841Z,96867.66
2023-09-29T14:25:42.367Z,96871.97
2023-09-29T14:28:10.815Z,96874.31
2023-09-29T14:30:39.053Z,96876.59
2023-09-29T14:33:07.935Z,96880.97
2023-09-29T14:35:48.694Z,96886.72
2023-09-29T14:38:19.097Z,96892.69
2023-09-29T14:40:48.684Z,96901.81
2023-09-29T14:43:17.883Z,96893.56
2023-09-29T14:45:46.629Z,96892.59
2023-09-29T14:48:15.334Z,96903.50
2023-09-29T14:50:43.606Z,96901.06
2023-09-29T14:53:11.791Z,96905.50
2023-09-29T14:55:40.851Z,96912.34
2023-09-29T14:58:12.601Z,96926.72
2023-09-29T15:00:44.620Z,96915.22
2023-09-29T15:03:14.877Z,96935.16
2023-09-29T15:05:43.449Z,96938.97
2023-09-29T15:08:12.201Z,96931.03
2023-09-29T15:10:41.318Z,96932.69
2023-09-29T15:13:11.095Z,96944.13
2023-09-29T15:15:41.342Z,96947.38
2023-09-29T15:18:09.997Z,96956.00
2023-09-29T15:20:39.875Z,96967.06
2023-09-29T15:23:09.807Z,96966.00
2023-09-29T15:25:38.424Z,96973.31
2023-09-29T15:28:08.094Z,96980.63
2023-09-29T15:30:42.097Z,96992.25
2023-09-29T15:33:10.989Z,96995.88
2023-09-29T15:35:39.660Z,96991.00
2023-09-29T15:38:07.838Z,97003.06
2023-09-29T15:40:36.252Z,96999.34
2023-09-29T15:43:04.522Z,97011.69
2023-09-29T15:45:33.137Z,97014.41
2023-09-29T15:48:03.041Z,97010.72
2023-09-29T15:50:32.260Z,97020.66
2023-09-29T15:53:00.988Z,97018.78
2023-09-29T15:55:29.101Z,97025.53
2023-09-29T15:57:57.316Z,97028.00
2023-09-29T16:00:26.161Z,97033.63
2023-09-29T16:02:55.261Z,97035.53
2023-09-29T16:05:25.094Z,97036.63
2023-09-29T16:07:53.677Z,97030.78
2023-09-29T16:10:23.313Z,97048.50
2023-09-29T16:12:51.379Z,97042.31
2023-09-29T16:15:19.999Z,97045.81
2023-09-29T16:17:48.311Z,97050.69
2023-09-29T16:20:16.485Z,97053.09
2023-09-29T16:22:46.141Z,97056.03
2023-09-29T16:25:15.240Z,97056.31
2023-09-29T16:27:43.366Z,97055.81
2023-09-29T16:30:12.037Z,97057.16
2023-09-29T16:32:40.296Z,97058.81
2023-09-29T16:35:15.057Z,97061.78
2023-09-29T16:37:46.378Z,97060.97
2023-09-29T16:40:23.121Z,97077.31
2023-09-29T16:42:57.007Z,97074.66
2023-09-29T16:45:25.227Z,97091.00
2023-09-29T16:47:53.520Z,97091.00
2023-09-29T16:50:21.861Z,97100.66
2023-09-29T16:52:51.303Z,97101.75
2023-09-29T16:55:19.566Z,97116.50
2023-09-29T16:57:47.736Z,97110.59
2023-09-29T17:00:18.007Z,97115.16
2023-09-29T17:02:46.486Z,97110.31
2023-09-29T17:05:15.202Z,97116.22
2023-09-29T17:07:43.354Z,97118.34
2023-09-29T17:10:14.097Z,97118.59
2023-09-29T17:12:43.115Z,97123.97
2023-09-29T17:15:13.769Z,97134.97
2023-09-29T17:17:43.124Z,97129.06
2023-09-29T17:20:12.739Z,97144.88
2023-09-29T17:22:41.453Z,97145.69
2023-09-29T17:25:12.166Z,97155.84
2023-09-29T17:27:40.326Z,97156.66
2023-09-29T17:30:10.450Z,97164.66
2023-09-29T17:32:38.652Z,97164.94
2023-09-29T17:35:08.722Z,97166.00
2023-09-29T17:37:36.890Z,97168.16
2023-09-29T17:40:05.513Z,97171.91
2023-09-29T17:42:34.959Z,97175.13
2023-09-29T17:45:03.231Z,97181.53
2023-09-29T17:47:31.870Z,97181.00
2023-09-29T17:50:00.447Z,97187.44
2023-09-29T17:52:28.822Z,97192.22
2023-09-29T17:54:57.259Z,97192.22
2023-09-29T17:57:25.471Z,97187.94
2023-09-29T17:59:55.182Z,97198.91
2023-09-29T18:02:23.390Z,97191.91
2023-09-29T18:04:51.592Z,97194.59
2023-09-29T18:07:22.232Z,97199.69
2023-09-29T18:09:50.490Z,97199.13
2023-09-29T18:12:18.860Z,97198.34
2023-09-29T18:14:47.536Z,97196.69
2023-09-29T18:17:16.939Z,97193.47
2023-09-29T18:19:45.799Z,97195.34
2023-09-29T18:22:14.035Z,97196.34
2023-09-29T18:24:42.890Z,97206.78
2023-09-29T18:27:11.312Z,97200.59
2023-09-29T18:29:39.456Z,97197.66
2023-09-29T18:32:08.235Z,97201.66
2023-09-29T18:34:37.857Z,97205.69
2023-09-29T18:37:06.825Z,97198.50
2023-09-29T18:39:35.097Z,97197.38
2023-09-29T18:42:03.459Z,97202.41
2023-09-29T18:44:31.891Z,97216.59
2023-09-29T18:47:00.102Z,97209.69
2023-09-29T18:49:31.836Z,97218.97
2023-09-29T18:52:01.603Z,97226.16
2023-09-29T18:54:29.901Z,97234.19
2023-09-29T18:56:58.069Z,97222.41
2023-09-29T18:59:26.317Z,97214.34
2023-09-29T19:01:54.485Z,97223.44
2023-09-29T19:04:22.635Z,97226.13
2023-09-29T19:06:51.090Z,97229.06
2023-09-29T19:09:21.401Z,97223.38
2023-09-29T19:11:50.159Z,97227.38
2023-09-29T19:14:18.353Z,97219.34
2023-09-29T19:16:46.636Z,97231.91
2023-09-29T19:19:14.766Z,97232.47
2023-09-29T19:21:42.886Z,97240.72
2023-09-29T19:24:11.226Z,97242.81
2023-09-29T19:26:40.892Z,97249.75
2023-09-29T19:29:09.062Z,97248.91
2023-09-29T19:31:37.474Z,97244.38
2023-09-29T19:34:06.678Z,97241.94
2023-09-29T19:36:35.378Z,97244.88
2023-09-29T19:39:04.164Z,97254.16
2023-09-29T19:41:33.593Z,97266.66
2023-09-29T19:44:03.195Z,97269.38
2023-09-29T19:46:35.452Z,97271.19
2023-09-29T19:49:05.908Z,97279.38
2023-09-29T19:51:34.323Z,97292.72
2023-09-29T19:54:03.139Z,97290.56
2023-09-29T19:56:34.938Z,97277.44
2023-09-29T19:59:06.023Z,97275.28
2023-09-29T20:01:34.418Z,97288.59
2023-09-29T20:04:03.763Z,97283.81
2023-09-29T20:06:32.075Z,97287.38
2023-09-29T20:09:01.897Z,97301.19
2023-09-29T20:11:30.301Z,97306.81
2023-09-29T20:13:58.959Z,97309.50
2023-09-29T20:16:28.959Z,97311.47
2023-09-29T20:18:58.064Z,97312.28
2023-09-29T20:21:26.959Z,97318.13
2023-09-29T20:23:55.276Z,97320.56
2023-09-29T20:26:23.589Z,97321.34
2023-09-29T20:28:53.801Z,97316.78
2023-09-29T20:31:22.425Z,97321.88
2023-09-29T20:33:52.022Z,97323.16
2023-09-29T20:36:20.347Z,97322.84
2023-09-29T20:38:48.710Z,97326.06
2023-09-29T20:41:16.864Z,97334.03
2023-09-29T20:43:45.377Z,97333.78
2023-09-29T20:46:13.683Z,97331.88
2023-09-29T20:48:41.944Z,97334.28
2023-09-29T20:51:14.803Z,97336.66
2023-09-29T20:53:43.117Z,97337.72
2023-09-29T20:56:12.669Z,97329.38
2023-09-29T20:58:40.793Z,97342.50
2023-09-29T21:01:09.461Z,97341.09
2023-09-29T21:03:37.749Z,97351.78
2023-09-29T21:06:07.973Z,97337.84
2023-09-29T21:08:37.806Z,97342.66
2023-09-29T21:11:05.919Z,97339.66
2023-09-29T21:13:34.085Z,97337.56
2023-09-29T21:16:03.286Z,97343.38
2023-09-29T21:18:31.565Z,97335.63
2023-09-29T21:20:59.746Z,97339.50
2023-09-29T21:23:27.995Z,97343.72
2023-09-29T21:25:57.471Z,97345.81
2023-09-29T21:28:25.713Z,97353.00
2023-09-29T21:30:53.809Z,97357.00
2023-09-29T21:33:22.707Z,97366.88
2023-09-29T21:35:51.111Z,97359.59
2023-09-29T21:38:19.245Z,97364.13
2023-09-29T21:40:47.471Z,97362.56
2023-09-29T21:43:16.975Z,97350.28
2023-09-29T21:45:45.332Z,97349.66
2023-09-29T21:48:13.861Z,97351.78
2023-09-29T21:50:42.077Z,97357.56
2023-09-29T21:53:10.648Z,97364.75
2023-09-29T21:55:38.808Z,97357.19
2023-09-29T21:58:07.095Z,97355.75
2023-09-29T22:00:40.003Z,97354.69
2023-09-29T22:03:10.185Z,97352.03
2023-09-29T22:05:41.841Z,97361.34
2023-09-29T22:08:10.835Z,97357.31
2023-09-29T22:10:39.131Z,97356.19
2023-09-29T22:13:07.323Z,97355.13
2023-09-29T22:15:37.152Z,97360.16
2023-09-29T22:18:06.522Z,97352.94
2023-09-29T22:20:34.801Z,97363.25
2023-09-29T22:23:03.022Z,97360.25
2023-09-29T22:25:31.662Z,97358.56
2023-09-29T22:28:00.322Z,97367.94
2023-09-29T22:30:28.996Z,97361.78
2023-09-29T22:32:58.526Z,97377.56
2023-09-29T22:35:26.670Z,97375.66
2023-09-29T22:37:54.808Z,97371.34
2023-09-29T22:40:24.969Z,97363.66
2023-09-29T22:42:53.500Z,97369.50
2023-09-29T22:45:21.627Z,97375.13
2023-09-29T22:47:50.396Z,97380.88
2023-09-29T22:50:20.073Z,97379.75
2023-09-29T22:52:48.693Z,97370.13
2023-09-29T22:55:16.991Z,97369.00
2023-09-29T22:57:45.180Z,97367.66
2023-09-29T23:00:15.422Z,97360.53
2023-09-29T23:02:46.605Z,97372.00
2023-09-29T23:05:14.962Z,97369.72
2023-09-29T23:07:44.370Z,97364.16
2023-09-29T23:10:15.367Z,97373.81
2023-09-29T23:12:45.099Z,97372.66
2023-09-29T23:15:14.968Z,97380.25
2023-09-29T23:17:43.239Z,97381.78
2023-09-29T23:20:12.933Z,97381.31
2023-09-29T23:22:42.246Z,97394.66
2023-09-29T23:25:12.814Z,97396.50
2023-09-29T23:27:41.506Z,97409.84
2023-09-29T23:30:11.215Z,97411.63
2023-09-29T23:32:40.839Z,97413.47
2023-09-29T23:35:10.821Z,97424.72
2023-09-29T23:37:38.986Z,97432.13
2023-09-29T23:40:08.101Z,97433.03
2023-09-29T23:42:37.633Z,97428.44
2023-09-29T23:45:07.900Z,97429.47
2023-09-29T23:47:36.675Z,97435.16
2023-09-29T23:50:06.050Z,97434.03
2023-09-29T23:52:34.588Z,97437.03
2023-09-29T23:55:03.058Z,97430.34
2023-09-29T23:57:31.991Z,97441.00
